Hovedside
METAR-TAF:

METAR-TAF

Lufthavner :

Curaçao internasjonale lufthavn

Curaçao, De nederlandske Antillene

breddegrad: 12-12N, lengdegrad: 068-58W, høyde over havet: 9 m

Gjeldene værobservasjon

Denne rapporten ble laget for 1 time og 0 minutter siden, klokken 01:00 UTC
Vind 13 kt fra Øst
Temperatur 28°C
Luftfuktighet 79%
Trykk 1012 hPa
Sikt 10 km eller mer
Få skyer i en høyde av 1800 ft

METAR: TNCC 030100Z 09013KT 9999 FEW018 28/24 Q1012 NOSIG

Tid: 22:00 (02:00 UTC)

Varsel

Denne rapporten ble laget for 2 timer og 45 minutter siden, klokken 23:15 UTC
Varsel gyldig fra 03. klokken 00 UTC til 03. klokken 24 UTC
Vind 13 kt fra Øst
Sikt 10 km eller mer
Spredte skyer i en høyde av 2000 ft
Sannsynlighet 40% :
Midlertidig
fra 03. klokken 00 UTC til 03. klokken 18 UTC
Sikt: 5000 m
Brutte skyer i en høyde av 1400 ft
regnbyger,

TAF: TNCC 022315Z 0300/0324 09013KT 9999 SCT020 PROB40 TEMPO 0300/0318 5000 SHRA BKN014

Værobservasjoner og værvarsel for over 4000 flyplasser (METAR- og TAF-rapporter).

Tilgjengelige stasjoner er representert av de røde og gule prikkene på kartet.

Hold musepekeren over prikken for å se navnet på stasjonen.

Klikk så for å se værobservasjoner og -varsler.

For å forandre kartet kan du klikke på den grønne knappen med svart kryss for å zoome inn, på den grønne knappen med strek for å zoome ut, eller på de grønne pilene for å se tilstøtende kart.


METAR-TAF: